Portada
METAR-TAF:

METAR-TAF

Aeroports :

Kassala, Sudan

latitud: 15-28N, longitud: 036-24E, altitud: 500 m

METAR: manca

Hora: 01:01 (22:01 UTC)

Pronòstic

L'informe es va fer fa 11 hores i 1 minuts, a les 11:00 UTC
Pronòstic vàlid del 25 a les 12 UTC al 26 a les 18 UTC
Vent 8 kt del Sud
Visibilitat 10 km o més
sense núvols per sota de 1500 mi sense presència de cumulonimbus.
Temporalment
l' 25 a les 13 UTC al 25 a les 18 UTC
Visibilitat 10 km o més
Escasses núvols a una alçada de 4000 ft
Núvols disperses a una alçada de 14000 ft
Temporalment
l' 25 a les 15 UTC al 25 a les 21 UTC
Visibilitat: 6000 m
Escasses núvols a una alçada de 4500 ft, Cumulonimbus.
Cel ennuvolat a una alçada de 14000 ft
tempesta, pluja

TAF: HSKA 251100Z 2512/2618 18008KT CAVOK TEMPO 2513/2518 9999 FEW040 SCT140 TEMPO 2515/2521 6000 TSRA FEW045CB BKN140

Observacions i pronòstics meteorològics de més de 4000 aeroports (METAR i TAF).

Les estacions disponibles són els punts grocs i vermells al mapa.

Posi el ratolí al punt desitjat per veure el nom de l'estació.

Feu clic per veure les observacions i els pronòstics meteorològics.

Per canviar el mapa: feu clic els botons verds amb una creu de color negre per apropar; al botó verd amb un guió per allunyar la imatge; o en les fletxes verdes per a mapes adjacents.


METAR-TAF: